createdAt,value
2018-11-10T00:02:03.091Z,12.60
2018-11-10T00:04:30.444Z,12.60
2018-11-10T00:06:57.704Z,12.60
2018-11-10T00:09:24.977Z,12.60
2018-11-10T00:11:52.352Z,12.60
2018-11-10T00:14:19.644Z,12.60
2018-11-10T00:16:46.797Z,12.60
2018-11-10T00:19:14.012Z,12.50
2018-11-10T00:21:41.252Z,12.50
2018-11-10T00:24:08.511Z,12.50
2018-11-10T00:26:35.836Z,12.40
2018-11-10T00:29:03.121Z,12.50
2018-11-10T00:31:30.352Z,12.50
2018-11-10T00:33:57.675Z,12.50
2018-11-10T00:36:24.992Z,12.50
2018-11-10T00:38:52.437Z,12.40
2018-11-10T00:41:19.739Z,12.40
2018-11-10T00:43:47.004Z,12.40
2018-11-10T00:46:14.360Z,12.40
2018-11-10T00:48:41.733Z,12.30
2018-11-10T00:51:09.122Z,12.40
2018-11-10T00:53:36.452Z,12.30
2018-11-10T00:56:03.933Z,12.30
2018-11-10T00:58:31.261Z,12.30
2018-11-10T01:00:58.522Z,12.30
2018-11-10T01:03:25.876Z,12.30
2018-11-10T01:05:55.075Z,12.30
2018-11-10T01:08:24.016Z,12.20
2018-11-10T01:10:51.362Z,12.20
2018-11-10T01:13:18.657Z,12.30
2018-11-10T01:15:45.968Z,12.30
2018-11-10T01:18:13.241Z,12.30
2018-11-10T01:20:40.528Z,12.20
2018-11-10T01:23:07.785Z,12.20
2018-11-10T01:25:35.089Z,12.20
2018-11-10T01:28:02.484Z,12.20
2018-11-10T01:30:29.782Z,12.30
2018-11-10T01:32:57.363Z,12.20
2018-11-10T01:35:24.745Z,12.20
2018-11-10T01:37:52.049Z,12.20
2018-11-10T01:40:19.308Z,12.20
2018-11-10T01:42:46.616Z,12.20
2018-11-10T01:45:15.083Z,12.20
2018-11-10T01:47:43.029Z,12.30
2018-11-10T01:50:10.886Z,12.20
2018-11-10T01:52:38.120Z,12.10
2018-11-10T01:55:05.825Z,12.10
2018-11-10T01:57:33.101Z,12.10
2018-11-10T02:00:00.314Z,12.10
2018-11-10T02:02:27.661Z,12.10
2018-11-10T02:04:54.859Z,12.10
2018-11-10T02:07:22.122Z,12.10
2018-11-10T02:09:49.410Z,12.10
2018-11-10T02:12:16.868Z,12.00
2018-11-10T02:14:44.134Z,12.10
2018-11-10T02:17:11.396Z,12.20
2018-11-10T02:19:38.655Z,12.10
2018-11-10T02:22:05.935Z,12.20
2018-11-10T02:24:33.264Z,12.20
2018-11-10T02:27:00.528Z,12.20
2018-11-10T02:29:27.804Z,12.30
2018-11-10T02:31:55.081Z,12.20
2018-11-10T02:34:22.339Z,12.30
2018-11-10T02:36:49.669Z,12.30
2018-11-10T02:39:16.976Z,12.20
2018-11-10T02:41:44.224Z,12.20
2018-11-10T02:44:11.469Z,12.30
2018-11-10T02:46:38.860Z,12.40
2018-11-10T02:49:06.214Z,12.30
2018-11-10T02:51:33.465Z,12.30
2018-11-10T02:54:00.821Z,12.30
2018-11-10T02:56:28.067Z,12.40
2018-11-10T02:58:55.293Z,12.40
2018-11-10T03:01:22.613Z,12.30
2018-11-10T03:03:49.848Z,12.30
2018-11-10T03:06:17.096Z,12.30
2018-11-10T03:08:44.348Z,12.40
2018-11-10T03:11:11.649Z,12.40
2018-11-10T03:13:38.937Z,12.40
2018-11-10T03:16:06.241Z,12.30
2018-11-10T03:18:33.545Z,12.40
2018-11-10T03:21:00.838Z,12.40
2018-11-10T03:23:28.085Z,12.40
2018-11-10T03:25:55.331Z,12.40
2018-11-10T03:28:22.644Z,12.40
2018-11-10T03:30:49.970Z,12.40
2018-11-10T03:33:17.253Z,12.40
2018-11-10T03:35:44.494Z,12.40
2018-11-10T03:38:11.817Z,12.40
2018-11-10T03:40:39.088Z,12.40
2018-11-10T03:43:06.422Z,12.40
2018-11-10T03:45:33.671Z,12.40
2018-11-10T03:48:00.916Z,12.30
2018-11-10T03:50:28.268Z,12.40
2018-11-10T03:52:55.526Z,12.40
2018-11-10T03:55:22.858Z,12.40
2018-11-10T03:57:50.107Z,12.40
2018-11-10T04:00:17.933Z,12.30
2018-11-10T04:02:45.845Z,12.30
2018-11-10T04:05:13.700Z,12.20
2018-11-10T04:07:42.227Z,12.30
2018-11-10T04:10:09.843Z,12.40
2018-11-10T04:12:37.212Z,12.60
2018-11-10T04:15:04.896Z,12.40
2018-11-10T04:17:32.236Z,12.40
2018-11-10T04:19:59.521Z,12.40
2018-11-10T04:22:35.457Z,12.40
2018-11-10T04:25:04.127Z,12.30
2018-11-10T04:27:32.101Z,12.40
2018-11-10T04:29:59.544Z,12.30
2018-11-10T04:32:26.876Z,12.40
2018-11-10T04:34:54.210Z,12.40
2018-11-10T04:37:21.419Z,12.40
2018-11-10T04:39:48.654Z,12.40
2018-11-10T04:42:15.897Z,12.30
2018-11-10T04:44:43.108Z,12.30
2018-11-10T04:47:10.344Z,12.40
2018-11-10T04:49:37.900Z,12.30
2018-11-10T04:52:05.701Z,12.30
2018-11-10T04:54:33.037Z,12.30
2018-11-10T04:57:00.424Z,12.30
2018-11-10T04:59:27.717Z,12.30
2018-11-10T05:01:54.983Z,12.30
2018-11-10T05:04:22.270Z,12.40
2018-11-10T05:06:49.549Z,12.30
2018-11-10T05:09:16.844Z,12.30
2018-11-10T05:11:44.184Z,12.40
2018-11-10T05:14:11.513Z,12.30
2018-11-10T05:16:38.808Z,12.30
2018-11-10T05:19:06.132Z,12.30
2018-11-10T05:21:33.396Z,12.40
2018-11-10T05:24:00.669Z,12.30
2018-11-10T05:26:27.970Z,12.30
2018-11-10T05:28:55.172Z,12.30
2018-11-10T05:31:22.505Z,12.30
2018-11-10T05:33:49.817Z,12.30
2018-11-10T05:36:17.126Z,12.30
2018-11-10T05:38:44.436Z,12.30
2018-11-10T05:41:11.670Z,12.30
2018-11-10T05:43:38.900Z,12.30
2018-11-10T05:46:06.174Z,12.30
2018-11-10T05:48:33.442Z,12.30
2018-11-10T05:51:00.692Z,12.30
2018-11-10T05:53:27.968Z,12.30
2018-11-10T05:55:55.173Z,12.30
2018-11-10T05:58:22.472Z,12.30
2018-11-10T06:00:49.750Z,12.40
2018-11-10T06:03:17.103Z,12.30
2018-11-10T06:05:44.326Z,12.40
2018-11-10T06:08:11.577Z,12.40
2018-11-10T06:10:38.872Z,12.30
2018-11-10T06:13:06.113Z,12.30
2018-11-10T06:15:33.383Z,12.20
2018-11-10T06:18:00.697Z,12.40
2018-11-10T06:20:28.033Z,12.30
2018-11-10T06:22:55.298Z,12.30
2018-11-10T06:25:22.572Z,12.30
2018-11-10T06:27:49.873Z,12.30
2018-11-10T06:30:17.137Z,12.40
2018-11-10T06:32:44.709Z,12.30
2018-11-10T06:35:11.937Z,12.30
2018-11-10T06:37:40.297Z,12.30
2018-11-10T06:40:09.281Z,12.30
2018-11-10T06:42:36.561Z,12.30
2018-11-10T06:45:04.561Z,12.30
2018-11-10T06:47:31.773Z,12.30
2018-11-10T06:49:59.036Z,12.30
2018-11-10T06:52:26.273Z,12.30
2018-11-10T06:54:53.540Z,12.30
2018-11-10T06:57:20.772Z,12.30
2018-11-10T06:59:48.084Z,12.30
2018-11-10T07:02:15.385Z,12.30
2018-11-10T07:04:42.717Z,12.30
2018-11-10T07:07:09.978Z,12.20
2018-11-10T07:09:37.289Z,12.30
2018-11-10T07:12:04.841Z,12.30
2018-11-10T07:14:32.094Z,12.30
2018-11-10T07:16:59.445Z,12.30
2018-11-10T07:19:26.716Z,12.30
2018-11-10T07:21:54.075Z,12.30
2018-11-10T07:24:21.395Z,12.30
2018-11-10T07:26:48.735Z,12.30
2018-11-10T07:29:16.007Z,12.40
2018-11-10T07:31:43.337Z,12.30
2018-11-10T07:34:10.638Z,12.30
2018-11-10T07:36:37.888Z,12.30
2018-11-10T07:39:07.408Z,12.30
2018-11-10T07:41:34.688Z,12.40
2018-11-10T07:44:01.993Z,12.40
2018-11-10T07:46:29.265Z,12.40
2018-11-10T07:48:56.558Z,12.30
2018-11-10T07:51:23.936Z,12.40
2018-11-10T07:53:51.156Z,12.40
2018-11-10T07:56:18.388Z,12.30
2018-11-10T07:58:45.622Z,12.40
2018-11-10T08:01:12.842Z,12.40
2018-11-10T08:03:40.452Z,12.40
2018-11-10T08:06:07.816Z,12.50
2018-11-10T08:08:35.051Z,12.40
2018-11-10T08:11:02.301Z,12.40
2018-11-10T08:13:29.525Z,12.40
2018-11-10T08:15:56.768Z,12.30
2018-11-10T08:18:30.384Z,12.30
2018-11-10T08:21:04.085Z,12.40
2018-11-10T08:23:37.331Z,12.40
2018-11-10T08:26:10.597Z,12.30
2018-11-10T08:28:43.886Z,12.40
2018-11-10T08:31:17.157Z,12.40
2018-11-10T08:33:50.651Z,12.40
2018-11-10T08:36:24.193Z,12.30
2018-11-10T08:38:57.687Z,12.40
2018-11-10T08:41:31.161Z,12.30
2018-11-10T08:44:04.965Z,12.30
2018-11-10T08:46:38.310Z,12.40
2018-11-10T08:49:11.863Z,12.40
2018-11-10T08:51:45.410Z,12.40
2018-11-10T08:54:18.829Z,12.40
2018-11-10T08:56:52.218Z,12.30
2018-11-10T08:59:25.715Z,12.30
2018-11-10T09:01:59.162Z,12.40
2018-11-10T09:04:32.655Z,12.50
2018-11-10T09:07:06.253Z,12.40
2018-11-10T09:09:39.701Z,12.50
2018-11-10T09:12:13.225Z,12.50
2018-11-10T09:14:46.716Z,12.50
2018-11-10T09:17:20.213Z,12.50
2018-11-10T09:19:53.586Z,12.50
2018-11-10T09:22:27.123Z,12.50
2018-11-10T09:25:00.600Z,12.50
2018-11-10T09:27:33.861Z,12.60
2018-11-10T09:30:08.044Z,12.50
2018-11-10T09:32:41.757Z,12.50
2018-11-10T09:35:10.417Z,12.50
2018-11-10T09:37:37.802Z,12.60
2018-11-10T09:40:07.493Z,12.60
2018-11-10T09:42:35.090Z,12.60
2018-11-10T09:45:02.187Z,12.60
2018-11-10T09:47:29.518Z,12.60
2018-11-10T09:49:56.817Z,12.50
2018-11-10T09:52:24.045Z,12.60
2018-11-10T09:54:51.391Z,12.60
2018-11-10T09:57:18.799Z,12.60
2018-11-10T09:59:46.077Z,12.70
2018-11-10T10:02:13.701Z,12.70
2018-11-10T10:04:40.651Z,12.70
2018-11-10T10:07:07.957Z,12.70
2018-11-10T10:09:35.267Z,12.70
2018-11-10T10:12:02.612Z,12.70
2018-11-10T10:14:29.870Z,12.70
2018-11-10T10:16:57.157Z,12.60
2018-11-10T10:19:24.404Z,12.80
2018-11-10T10:21:51.766Z,12.80
2018-11-10T10:24:19.025Z,12.90
2018-11-10T10:26:46.289Z,12.90
2018-11-10T10:29:13.540Z,13.00
2018-11-10T10:31:40.798Z,12.90
2018-11-10T10:34:08.134Z,12.90
2018-11-10T10:36:35.363Z,13.00
2018-11-10T10:39:04.349Z,13.00
2018-11-10T10:41:31.573Z,12.90
2018-11-10T10:43:58.823Z,12.90
2018-11-10T10:46:26.185Z,12.90
2018-11-10T10:48:53.611Z,13.00
2018-11-10T10:51:20.720Z,13.00
2018-11-10T10:53:48.069Z,13.00
2018-11-10T10:56:15.429Z,13.00
2018-11-10T10:58:42.709Z,13.00
2018-11-10T11:01:15.567Z,13.10
2018-11-10T11:03:48.429Z,13.10
2018-11-10T11:06:15.735Z,13.20
2018-11-10T11:08:43.036Z,13.20
2018-11-10T11:11:10.383Z,13.30
2018-11-10T11:13:37.593Z,13.30
2018-11-10T11:16:05.113Z,13.30
2018-11-10T11:18:32.352Z,13.40
2018-11-10T11:20:59.538Z,13.40
2018-11-10T11:23:26.758Z,13.50
2018-11-10T11:25:54.032Z,13.50
2018-11-10T11:28:21.269Z,13.50
2018-11-10T11:30:48.656Z,13.60
2018-11-10T11:33:15.901Z,13.60
2018-11-10T11:35:43.185Z,13.60
2018-11-10T11:38:10.514Z,13.50
2018-11-10T11:40:37.957Z,13.50
2018-11-10T11:43:05.207Z,13.50
2018-11-10T11:45:32.591Z,13.50
2018-11-10T11:47:59.996Z,13.60
2018-11-10T11:50:27.486Z,13.60
2018-11-10T11:52:54.751Z,13.50
2018-11-10T11:55:21.957Z,13.50
2018-11-10T11:57:49.407Z,13.50
2018-11-10T12:00:17.471Z,13.50
2018-11-10T12:02:45.156Z,13.50
2018-11-10T12:05:13.856Z,13.50
2018-11-10T12:07:41.238Z,13.50
2018-11-10T12:10:10.067Z,13.50
2018-11-10T12:12:37.355Z,13.50
2018-11-10T12:15:05.549Z,13.50
2018-11-10T12:17:33.550Z,13.50
2018-11-10T12:20:00.783Z,13.60
2018-11-10T12:22:28.230Z,13.60
2018-11-10T12:24:55.461Z,13.60
2018-11-10T12:27:22.721Z,13.60
2018-11-10T12:29:49.926Z,13.70
2018-11-10T12:32:17.217Z,13.70
2018-11-10T12:34:44.493Z,13.70
2018-11-10T12:37:11.772Z,13.80
2018-11-10T12:39:39.989Z,13.70
2018-11-10T12:42:07.253Z,13.70
2018-11-10T12:44:34.576Z,13.80
2018-11-10T12:47:01.829Z,13.70
2018-11-10T12:49:29.192Z,13.70
2018-11-10T12:51:56.442Z,13.70
2018-11-10T12:54:23.741Z,13.60
2018-11-10T12:56:50.963Z,13.60
2018-11-10T12:59:18.301Z,13.70
2018-11-10T13:01:45.545Z,13.70
2018-11-10T13:04:12.798Z,13.80
2018-11-10T13:06:40.197Z,13.80
2018-11-10T13:09:08.778Z,13.80
2018-11-10T13:11:36.583Z,13.80
2018-11-10T13:14:03.926Z,13.80
2018-11-10T13:16:31.247Z,13.80
2018-11-10T13:18:58.525Z,13.80
2018-11-10T13:21:25.936Z,13.80
2018-11-10T13:23:53.321Z,13.80
2018-11-10T13:26:20.606Z,13.80
2018-11-10T13:28:48.473Z,13.80
2018-11-10T13:31:15.839Z,13.80
2018-11-10T13:33:43.033Z,13.80
2018-11-10T13:36:10.369Z,13.80
2018-11-10T13:38:37.614Z,13.70
2018-11-10T13:41:04.892Z,13.80
2018-11-10T13:43:32.204Z,13.80
2018-11-10T13:45:59.520Z,13.80
2018-11-10T13:48:26.828Z,13.70
2018-11-10T13:50:55.137Z,13.70
2018-11-10T13:53:22.175Z,13.70
2018-11-10T13:55:49.483Z,13.70
2018-11-10T13:58:16.653Z,13.70
2018-11-10T14:00:43.901Z,13.70
2018-11-10T14:03:11.166Z,13.70
2018-11-10T14:05:38.360Z,13.70
2018-11-10T14:08:05.693Z,13.70
2018-11-10T14:10:32.933Z,13.70
2018-11-10T14:13:00.237Z,13.70
2018-11-10T14:15:27.566Z,13.70
2018-11-10T14:17:54.907Z,13.70
2018-11-10T14:20:22.250Z,13.70
2018-11-10T14:22:49.447Z,13.70
2018-11-10T14:25:17.169Z,13.70
2018-11-10T14:27:44.721Z,13.60
2018-11-10T14:30:15.511Z,13.60
2018-11-10T14:32:43.222Z,13.70
2018-11-10T14:35:11.104Z,13.60
2018-11-10T14:37:38.304Z,13.60
2018-11-10T14:40:07.108Z,13.50
2018-11-10T14:42:34.395Z,13.60
2018-11-10T14:45:01.659Z,13.60
2018-11-10T14:47:28.876Z,13.60
2018-11-10T14:49:56.172Z,13.60
2018-11-10T14:52:23.484Z,13.50
2018-11-10T14:54:50.777Z,13.60
2018-11-10T14:57:18.132Z,13.70
2018-11-10T14:59:45.381Z,13.60
2018-11-10T15:02:12.699Z,13.60
2018-11-10T15:04:39.949Z,13.50
2018-11-10T15:07:07.183Z,13.50
2018-11-10T15:09:34.543Z,13.50
2018-11-10T15:12:01.926Z,13.50
2018-11-10T15:14:29.101Z,13.50
2018-11-10T15:16:56.353Z,13.60
2018-11-10T15:19:23.671Z,13.50
2018-11-10T15:21:50.925Z,13.50
2018-11-10T15:24:18.200Z,13.40
2018-11-10T15:26:45.469Z,13.50
2018-11-10T15:29:12.729Z,13.60
2018-11-10T15:31:39.984Z,13.60
2018-11-10T15:34:07.352Z,13.50
2018-11-10T15:36:34.574Z,13.50
2018-11-10T15:39:01.885Z,13.50
2018-11-10T15:41:29.197Z,13.50
2018-11-10T15:43:57.276Z,13.50
2018-11-10T15:46:24.610Z,13.50
2018-11-10T15:48:51.850Z,13.40
2018-11-10T15:51:19.130Z,13.40
2018-11-10T15:53:46.383Z,13.40
2018-11-10T15:56:13.629Z,13.40
2018-11-10T15:58:40.925Z,13.40
2018-11-10T16:01:08.201Z,13.40
2018-11-10T16:03:35.540Z,13.60
2018-11-10T16:06:02.789Z,13.50
2018-11-10T16:08:30.069Z,13.40
2018-11-10T16:10:57.320Z,13.50
2018-11-10T16:13:24.613Z,13.40
2018-11-10T16:15:51.994Z,13.40
2018-11-10T16:18:19.305Z,13.40
2018-11-10T16:20:46.701Z,13.40
2018-11-10T16:23:13.894Z,13.40
2018-11-10T16:25:41.174Z,13.40
2018-11-10T16:28:08.500Z,13.40
2018-11-10T16:30:35.825Z,13.40
2018-11-10T16:33:03.103Z,13.50
2018-11-10T16:35:30.402Z,13.40
2018-11-10T16:37:57.758Z,13.50
2018-11-10T16:40:24.977Z,13.50
2018-11-10T16:42:52.225Z,13.40
2018-11-10T16:45:20.240Z,13.40
2018-11-10T16:47:47.596Z,13.40
2018-11-10T16:50:14.889Z,13.30
2018-11-10T16:52:42.903Z,13.40
2018-11-10T16:55:10.255Z,13.40
2018-11-10T16:57:37.923Z,13.40
2018-11-10T17:00:07.941Z,13.30
2018-11-10T17:02:35.198Z,13.30
2018-11-10T17:05:02.545Z,13.30
2018-11-10T17:07:29.817Z,13.40
2018-11-10T17:09:57.116Z,13.30
2018-11-10T17:12:24.390Z,13.40
2018-11-10T17:14:51.618Z,13.30
2018-11-10T17:17:18.875Z,13.30
2018-11-10T17:19:46.174Z,13.30
2018-11-10T17:22:13.488Z,13.30
2018-11-10T17:24:40.710Z,13.30
2018-11-10T17:27:07.955Z,13.30
2018-11-10T17:29:35.248Z,13.40
2018-11-10T17:32:02.551Z,13.30
2018-11-10T17:34:29.830Z,13.30
2018-11-10T17:36:57.161Z,13.30
2018-11-10T17:39:24.590Z,13.30
2018-11-10T17:41:51.724Z,13.20
2018-11-10T17:44:19.009Z,13.30
2018-11-10T17:46:46.230Z,13.40
2018-11-10T17:49:13.552Z,13.40
2018-11-10T17:51:40.821Z,13.30
2018-11-10T17:54:08.127Z,13.30
2018-11-10T17:56:35.394Z,13.30
2018-11-10T17:59:02.612Z,13.30
2018-11-10T18:01:30.469Z,13.40
2018-11-10T18:03:57.730Z,13.40
2018-11-10T18:06:24.979Z,13.30
2018-11-10T18:08:52.287Z,13.50
2018-11-10T18:11:19.520Z,13.30
2018-11-10T18:13:46.845Z,13.40
2018-11-10T18:16:14.182Z,13.40
2018-11-10T18:18:41.449Z,13.40
2018-11-10T18:21:08.721Z,13.40
2018-11-10T18:23:36.110Z,13.40
2018-11-10T18:26:03.365Z,13.40
2018-11-10T18:28:30.598Z,13.30
2018-11-10T18:30:57.854Z,13.30
2018-11-10T18:33:25.146Z,13.30
2018-11-10T18:35:52.421Z,13.40
2018-11-10T18:38:19.676Z,13.40
2018-11-10T18:40:47.045Z,13.40
2018-11-10T18:43:14.296Z,13.30
2018-11-10T18:45:41.619Z,13.30
2018-11-10T18:48:08.827Z,13.30
2018-11-10T18:50:36.213Z,13.40
2018-11-10T18:53:03.848Z,13.30
2018-11-10T18:55:31.217Z,13.40
2018-11-10T18:57:58.536Z,13.40
2018-11-10T19:00:25.879Z,13.30
2018-11-10T19:02:53.171Z,13.30
2018-11-10T19:05:20.511Z,13.30
2018-11-10T19:07:47.797Z,13.30
2018-11-10T19:10:16.243Z,13.40
2018-11-10T19:12:43.550Z,13.30
2018-11-10T19:15:14.226Z,13.40
2018-11-10T19:17:41.489Z,13.30
2018-11-10T19:20:09.416Z,13.30
2018-11-10T19:22:36.805Z,13.30
2018-11-10T19:25:05.340Z,13.40
2018-11-10T19:27:32.584Z,13.40
2018-11-10T19:30:00.105Z,13.40
2018-11-10T19:32:30.200Z,13.40
2018-11-10T19:34:57.489Z,13.40
2018-11-10T19:37:24.983Z,13.30
2018-11-10T19:39:52.288Z,13.30
2018-11-10T19:42:19.485Z,13.20
2018-11-10T19:44:46.784Z,13.30
2018-11-10T19:47:14.064Z,13.30
2018-11-10T19:49:41.376Z,13.30
2018-11-10T19:52:08.805Z,13.30
2018-11-10T19:54:35.943Z,13.30
2018-11-10T19:57:03.213Z,13.30
2018-11-10T19:59:30.447Z,13.40
2018-11-10T20:01:57.767Z,13.30
2018-11-10T20:04:25.069Z,13.40
2018-11-10T20:06:52.470Z,13.40
2018-11-10T20:09:19.641Z,13.40
2018-11-10T20:11:46.885Z,13.30
2018-11-10T20:14:14.196Z,13.30
2018-11-10T20:16:41.505Z,13.30
2018-11-10T20:19:08.821Z,13.30
2018-11-10T20:21:36.109Z,13.30
2018-11-10T20:24:03.448Z,13.30
2018-11-10T20:26:30.743Z,13.40
2018-11-10T20:28:58.031Z,13.30
2018-11-10T20:31:25.352Z,13.30
2018-11-10T20:33:52.621Z,13.30
2018-11-10T20:36:19.902Z,13.30
2018-11-10T20:38:47.248Z,13.30
2018-11-10T20:41:14.580Z,13.30
2018-11-10T20:43:41.802Z,13.30
2018-11-10T20:46:09.125Z,13.30
2018-11-10T20:48:36.391Z,13.30
2018-11-10T20:51:03.962Z,13.30
2018-11-10T20:53:31.293Z,13.30
2018-11-10T20:55:58.545Z,13.30
2018-11-10T20:58:25.851Z,13.30
2018-11-10T21:00:53.135Z,13.30
2018-11-10T21:03:20.354Z,13.40
2018-11-10T21:05:47.725Z,13.30
2018-11-10T21:08:14.885Z,13.30
2018-11-10T21:10:42.159Z,13.30
2018-11-10T21:13:09.393Z,13.30
2018-11-10T21:15:36.658Z,13.30
2018-11-10T21:18:03.916Z,13.30
2018-11-10T21:20:31.172Z,13.30
2018-11-10T21:22:58.441Z,13.30
2018-11-10T21:25:25.677Z,13.30
2018-11-10T21:27:52.956Z,13.30
2018-11-10T21:30:22.816Z,13.40
2018-11-10T21:32:51.762Z,13.40
2018-11-10T21:35:20.848Z,13.40
2018-11-10T21:37:48.192Z,13.40
2018-11-10T21:40:16.844Z,13.40
2018-11-10T21:42:44.332Z,13.60
2018-11-10T21:45:12.458Z,13.50
2018-11-10T21:47:39.816Z,13.40
2018-11-10T21:50:10.151Z,13.40
2018-11-10T21:52:38.357Z,13.50
2018-11-10T21:55:05.648Z,13.50
2018-11-10T21:57:32.840Z,13.50
2018-11-10T22:00:00.118Z,13.50
2018-11-10T22:02:27.422Z,13.50
2018-11-10T22:04:54.611Z,13.50
2018-11-10T22:07:21.849Z,13.50
2018-11-10T22:09:49.260Z,13.50
2018-11-10T22:12:16.513Z,13.60
2018-11-10T22:14:43.778Z,13.60
2018-11-10T22:17:11.057Z,13.60
2018-11-10T22:19:38.349Z,13.50
2018-11-10T22:22:05.774Z,13.60
2018-11-10T22:24:32.953Z,13.50
2018-11-10T22:27:00.233Z,13.50
2018-11-10T22:29:27.512Z,13.50
2018-11-10T22:31:54.828Z,13.50
2018-11-10T22:34:22.049Z,13.50
2018-11-10T22:36:49.452Z,13.50
2018-11-10T22:39:16.724Z,13.60
2018-11-10T22:41:44.693Z,13.60
2018-11-10T22:44:12.944Z,13.60
2018-11-10T22:46:40.291Z,13.60
2018-11-10T22:49:07.620Z,13.60
2018-11-10T22:51:34.940Z,13.60
2018-11-10T22:54:02.316Z,13.50
2018-11-10T22:56:29.714Z,13.60
2018-11-10T22:58:57.174Z,13.60
2018-11-10T23:01:29.145Z,13.60
2018-11-10T23:03:56.455Z,13.60
2018-11-10T23:06:23.690Z,13.60
2018-11-10T23:08:50.988Z,13.60
2018-11-10T23:11:20.124Z,13.60
2018-11-10T23:13:49.684Z,13.60
2018-11-10T23:16:18.639Z,13.60
2018-11-10T23:18:46.052Z,13.60
2018-11-10T23:21:13.368Z,13.60
2018-11-10T23:23:40.786Z,13.60
2018-11-10T23:26:07.972Z,13.60
2018-11-10T23:28:35.289Z,13.60
2018-11-10T23:31:02.577Z,13.60
2018-11-10T23:33:29.981Z,13.60
2018-11-10T23:35:57.272Z,13.60
2018-11-10T23:38:24.552Z,13.60
2018-11-10T23:40:51.831Z,13.60
2018-11-10T23:43:19.193Z,13.60
2018-11-10T23:45:46.577Z,13.60
2018-11-10T23:48:13.902Z,13.60
2018-11-10T23:50:41.250Z,13.60
2018-11-10T23:53:08.643Z,13.60
2018-11-10T23:55:35.964Z,13.60
2018-11-10T23:58:03.329Z,13.70
